createdAt,value
2022-07-30T00:01:04.640Z,79.45
2022-07-30T00:03:52.631Z,79.36
2022-07-30T00:06:41.195Z,80.77
2022-07-30T00:09:29.223Z,79.60
2022-07-30T00:12:22.779Z,79.38
2022-07-30T00:15:11.457Z,79.11
2022-07-30T00:17:59.675Z,80.25
2022-07-30T00:20:48.840Z,80.19
2022-07-30T00:23:37.630Z,81.32
2022-07-30T00:26:26.061Z,81.27
2022-07-30T00:29:14.459Z,82.68
2022-07-30T00:32:02.981Z,82.34
2022-07-30T00:34:51.714Z,83.44
2022-07-30T00:37:40.181Z,84.05
2022-07-30T00:40:28.396Z,85.41
2022-07-30T00:43:20.113Z,87.64
2022-07-30T00:46:08.314Z,86.15
2022-07-30T00:48:56.521Z,85.53
2022-07-30T00:51:45.124Z,88.30
2022-07-30T00:54:33.222Z,87.20
2022-07-30T00:57:21.309Z,83.88
2022-07-30T01:00:13.936Z,85.64
2022-07-30T01:03:04.799Z,83.87
2022-07-30T01:05:52.907Z,83.07
2022-07-30T01:08:43.251Z,82.89
2022-07-30T01:11:39.559Z,83.28
2022-07-30T01:14:27.718Z,83.93
2022-07-30T01:17:17.068Z,83.28
2022-07-30T01:20:37.701Z,83.65
2022-07-30T01:23:36.761Z,83.42
2022-07-30T01:26:26.410Z,83.22
2022-07-30T01:29:28.733Z,83.25
2022-07-30T01:32:20.103Z,83.24
2022-07-30T01:35:11.401Z,83.40
2022-07-30T01:38:02.457Z,83.51
2022-07-30T01:40:53.345Z,83.76
2022-07-30T01:43:43.181Z,83.91
2022-07-30T01:46:33.281Z,84.70
2022-07-30T01:49:24.523Z,84.49
2022-07-30T01:52:14.629Z,84.76
2022-07-30T01:55:03.819Z,84.82
2022-07-30T01:58:01.363Z,84.93
2022-07-30T02:00:52.149Z,84.89
2022-07-30T02:03:40.860Z,84.96
2022-07-30T02:06:40.312Z,85.39
2022-07-30T02:09:47.187Z,85.24
2022-07-30T02:12:38.859Z,85.72
2022-07-30T02:15:37.569Z,86.05
2022-07-30T02:18:58.538Z,86.55
2022-07-30T02:22:08.718Z,86.51
2022-07-30T02:25:01.147Z,85.86
2022-07-30T02:27:58.813Z,86.11
2022-07-30T02:30:56.017Z,85.57
2022-07-30T02:33:49.618Z,85.79
2022-07-30T02:36:39.439Z,85.63
2022-07-30T02:39:28.785Z,85.70
2022-07-30T02:42:18.309Z,85.97
2022-07-30T02:45:12.523Z,86.00
2022-07-30T02:48:06.762Z,86.01
2022-07-30T02:50:57.911Z,86.59
2022-07-30T02:53:48.065Z,86.53
2022-07-30T02:56:37.111Z,86.91
2022-07-30T02:59:26.717Z,87.61
2022-07-30T03:02:15.239Z,87.90
2022-07-30T03:05:07.954Z,88.23
2022-07-30T03:07:59.808Z,89.05
2022-07-30T03:10:49.641Z,88.99
2022-07-30T03:13:38.615Z,90.00
2022-07-30T03:16:28.537Z,90.41
2022-07-30T03:19:23.137Z,91.09
2022-07-30T03:22:13.111Z,90.92
2022-07-30T03:25:02.441Z,90.46
2022-07-30T03:27:52.197Z,90.88
2022-07-30T03:30:40.888Z,91.53
2022-07-30T03:33:38.894Z,91.31
2022-07-30T03:36:28.955Z,91.01
2022-07-30T03:39:18.432Z,91.42
2022-07-30T03:42:08.259Z,91.73
2022-07-30T03:44:58.264Z,91.44
2022-07-30T03:47:47.816Z,91.70
2022-07-30T03:50:41.412Z,91.81
2022-07-30T03:53:30.113Z,92.29
2022-07-30T03:56:42.171Z,92.77
2022-07-30T03:59:53.661Z,92.46
2022-07-30T04:02:45.134Z,93.87
2022-07-30T04:05:55.851Z,94.22
2022-07-30T04:08:44.389Z,94.56
2022-07-30T04:11:41.503Z,95.18
2022-07-30T04:14:44.455Z,96.71
2022-07-30T04:17:45.204Z,99.82
2022-07-30T04:20:42.302Z,100.00
2022-07-30T04:23:30.844Z,100.00
2022-07-30T04:26:19.862Z,100.00
2022-07-30T04:29:13.512Z,100.00
2022-07-30T04:32:09.723Z,100.00
2022-07-30T04:35:50.065Z,100.00
2022-07-30T04:38:37.535Z,100.00
2022-07-30T04:41:26.501Z,100.00
2022-07-30T04:44:44.017Z,100.00
2022-07-30T04:47:58.466Z,100.00
2022-07-30T04:51:01.796Z,100.00
2022-07-30T04:53:53.747Z,100.00
2022-07-30T04:56:53.256Z,100.00
2022-07-30T04:59:50.286Z,100.00
2022-07-30T05:02:41.435Z,100.00
2022-07-30T05:05:32.553Z,100.00
2022-07-30T05:08:21.214Z,100.00
2022-07-30T05:11:14.790Z,100.00
2022-07-30T05:14:03.252Z,100.00
2022-07-30T05:16:52.112Z,100.00
2022-07-30T05:19:40.574Z,100.00
2022-07-30T05:22:30.782Z,100.00
2022-07-30T05:25:19.177Z,100.00
2022-07-30T05:28:07.350Z,100.00
2022-07-30T05:30:58.149Z,100.00
2022-07-30T05:33:47.513Z,100.00
2022-07-30T05:36:38.951Z,100.00
2022-07-30T05:39:27.145Z,100.00
2022-07-30T05:42:34.038Z,100.00
2022-07-30T05:45:22.371Z,100.00
2022-07-30T05:48:10.711Z,100.00
2022-07-30T05:50:59.218Z,100.00
2022-07-30T05:53:48.172Z,100.00
2022-07-30T05:57:00.006Z,100.00
2022-07-30T05:59:59.714Z,100.00
2022-07-30T06:03:06.100Z,100.00
2022-07-30T06:06:29.171Z,100.00
2022-07-30T06:09:17.608Z,100.00
2022-07-30T06:12:14.846Z,100.00
2022-07-30T06:15:04.676Z,100.00
2022-07-30T06:18:01.535Z,100.00
2022-07-30T06:21:06.259Z,100.00
2022-07-30T06:24:14.664Z,99.92
2022-07-30T06:27:13.551Z,99.40
2022-07-30T06:30:03.365Z,98.22
2022-07-30T06:32:52.202Z,99.18
2022-07-30T06:35:42.871Z,99.38
2022-07-30T06:38:33.966Z,98.68
2022-07-30T06:41:30.782Z,96.78
2022-07-30T06:44:20.105Z,93.04
2022-07-30T06:47:43.788Z,90.68
2022-07-30T06:50:32.229Z,89.99
2022-07-30T06:53:21.308Z,88.16
2022-07-30T06:56:32.658Z,86.88
2022-07-30T06:59:27.631Z,85.78
2022-07-30T07:02:42.810Z,84.94
2022-07-30T07:05:34.546Z,86.26
2022-07-30T07:08:25.273Z,85.79
2022-07-30T07:11:16.009Z,85.23
2022-07-30T07:14:15.117Z,83.15
2022-07-30T07:17:03.896Z,82.38
2022-07-30T07:20:11.275Z,82.39
2022-07-30T07:23:14.772Z,82.51
2022-07-30T07:26:04.129Z,80.74
2022-07-30T07:28:52.606Z,80.37
2022-07-30T07:32:05.694Z,81.32
2022-07-30T07:34:49.194Z,79.65
2022-07-30T07:37:37.696Z,79.65
2022-07-30T07:40:29.626Z,77.81
2022-07-30T07:43:19.053Z,77.89
2022-07-30T07:46:08.029Z,78.10
2022-07-30T07:48:57.883Z,78.66
2022-07-30T07:51:55.801Z,77.23
2022-07-30T07:54:44.795Z,77.23
2022-07-30T07:57:42.618Z,77.06
2022-07-30T08:00:32.494Z,77.53
2022-07-30T08:03:21.232Z,76.82
2022-07-30T08:06:14.735Z,74.49
2022-07-30T08:09:43.507Z,74.63
2022-07-30T08:12:53.573Z,73.25
2022-07-30T08:15:42.256Z,72.84
2022-07-30T08:19:03.140Z,72.56
2022-07-30T08:21:59.632Z,71.32
2022-07-30T08:24:51.903Z,71.07
2022-07-30T08:27:40.394Z,70.89
2022-07-30T08:30:31.694Z,69.71
2022-07-30T08:33:20.322Z,68.98
2022-07-30T08:36:10.208Z,68.22
2022-07-30T08:38:59.870Z,69.97
2022-07-30T08:41:49.873Z,70.41
2022-07-30T08:44:39.271Z,71.10
2022-07-30T08:47:34.848Z,71.01
2022-07-30T08:50:32.221Z,69.79
2022-07-30T08:53:46.905Z,67.30
2022-07-30T08:56:35.502Z,67.05
2022-07-30T08:59:24.758Z,68.71
2022-07-30T09:02:33.768Z,64.17
2022-07-30T09:05:25.695Z,62.84
2022-07-30T09:08:14.451Z,62.56
2022-07-30T09:11:07.220Z,60.99
2022-07-30T09:13:56.448Z,63.68
2022-07-30T09:16:46.440Z,61.60
2022-07-30T09:19:35.481Z,62.84
2022-07-30T09:22:23.881Z,61.36
2022-07-30T09:25:36.718Z,61.88
2022-07-30T09:28:45.101Z,60.29
2022-07-30T09:32:13.237Z,61.40
2022-07-30T09:35:20.407Z,59.56
2022-07-30T09:38:28.156Z,59.57
2022-07-30T09:41:39.562Z,59.02
2022-07-30T09:44:32.986Z,59.43
2022-07-30T09:47:34.161Z,60.43
2022-07-30T09:50:29.945Z,59.43
2022-07-30T09:53:19.802Z,58.47
2022-07-30T09:56:30.202Z,59.24
2022-07-30T10:02:41.373Z,59.57
2022-07-30T10:05:59.178Z,57.42
2022-07-30T10:08:50.964Z,57.67
2022-07-30T10:11:40.079Z,57.35
2022-07-30T10:14:42.637Z,58.98
2022-07-30T10:17:34.397Z,56.91
2022-07-30T10:20:38.795Z,57.19
2022-07-30T10:24:06.733Z,56.53
2022-07-30T10:27:14.001Z,56.97
2022-07-30T10:30:20.301Z,57.41
2022-07-30T10:33:36.213Z,54.68
2022-07-30T10:36:26.030Z,55.74
2022-07-30T10:39:20.461Z,57.72
2022-07-30T10:42:25.946Z,58.50
2022-07-30T10:45:45.530Z,58.42
2022-07-30T10:48:35.349Z,57.75
2022-07-30T10:51:43.264Z,57.07
2022-07-30T10:54:36.511Z,56.52
2022-07-30T10:57:32.254Z,57.17
2022-07-30T11:00:21.456Z,57.17
2022-07-30T11:03:23.733Z,57.27
2022-07-30T11:06:30.335Z,58.08
2022-07-30T11:09:40.955Z,56.81
2022-07-30T11:12:42.323Z,57.27
2022-07-30T11:15:57.454Z,56.49
2022-07-30T11:19:56.746Z,56.45
2022-07-30T11:22:38.961Z,55.20
2022-07-30T11:25:50.258Z,54.87
2022-07-30T11:28:43.157Z,51.21
2022-07-30T11:31:57.733Z,51.38
2022-07-30T11:34:45.671Z,52.76
2022-07-30T11:38:02.157Z,53.79
2022-07-30T11:40:50.259Z,54.16
2022-07-30T11:43:41.589Z,53.65
2022-07-30T11:46:30.101Z,53.85
2022-07-30T11:49:19.151Z,54.16
2022-07-30T11:52:08.668Z,53.62
2022-07-30T11:54:56.866Z,52.84
2022-07-30T11:57:45.337Z,51.41
2022-07-30T12:00:40.531Z,51.72
2022-07-30T12:03:31.911Z,51.88
2022-07-30T12:06:20.641Z,51.22
2022-07-30T12:09:10.326Z,50.89
2022-07-30T12:11:58.813Z,52.86
2022-07-30T12:14:49.402Z,52.16
2022-07-30T12:17:47.082Z,50.90
2022-07-30T12:20:35.733Z,51.12
2022-07-30T12:23:24.711Z,52.12
2022-07-30T12:26:26.534Z,51.67
2022-07-30T12:29:15.429Z,51.88
2022-07-30T12:32:04.236Z,51.55
2022-07-30T12:34:58.528Z,52.79
2022-07-30T12:38:04.370Z,53.08
2022-07-30T12:41:03.650Z,52.27
2022-07-30T12:43:55.237Z,53.76
2022-07-30T12:46:43.746Z,51.99
2022-07-30T12:49:37.701Z,52.69
2022-07-30T12:52:35.859Z,50.41
2022-07-30T12:55:33.325Z,50.77
2022-07-30T12:58:21.741Z,51.23
2022-07-30T13:01:12.086Z,51.82
2022-07-30T13:04:07.388Z,52.50
2022-07-30T13:07:29.075Z,49.98
2022-07-30T13:10:18.860Z,50.98
2022-07-30T13:13:06.979Z,51.02
2022-07-30T13:16:06.528Z,50.95
2022-07-30T13:18:54.957Z,52.16
2022-07-30T13:21:49.422Z,51.26
2022-07-30T13:24:39.294Z,49.67
2022-07-30T13:27:27.766Z,50.39
2022-07-30T13:30:16.226Z,50.00
2022-07-30T13:33:04.606Z,48.59
2022-07-30T13:35:53.011Z,48.90
2022-07-30T13:38:41.681Z,48.99
2022-07-30T13:41:29.879Z,48.71
2022-07-30T13:44:18.393Z,49.28
2022-07-30T13:47:08.488Z,50.18
2022-07-30T13:49:56.857Z,49.00
2022-07-30T13:52:45.615Z,48.84
2022-07-30T13:55:34.234Z,49.23
2022-07-30T13:58:22.799Z,48.84
2022-07-30T14:01:17.709Z,48.60
2022-07-30T14:04:06.742Z,47.84
2022-07-30T14:06:55.135Z,47.88
2022-07-30T14:09:45.918Z,46.13
2022-07-30T14:12:36.314Z,47.07
2022-07-30T14:15:26.522Z,47.31
2022-07-30T14:18:15.055Z,48.61
2022-07-30T14:21:03.299Z,48.76
2022-07-30T14:23:51.356Z,49.64
2022-07-30T14:26:39.779Z,48.84
2022-07-30T14:29:28.169Z,47.95
2022-07-30T14:32:16.580Z,47.96
2022-07-30T14:35:09.341Z,47.62
2022-07-30T14:37:57.989Z,47.34
2022-07-30T14:40:46.792Z,46.67
2022-07-30T14:43:34.953Z,48.42
2022-07-30T14:46:23.908Z,48.02
2022-07-30T14:49:12.432Z,47.24
2022-07-30T14:52:04.131Z,46.57
2022-07-30T14:54:52.733Z,47.25
2022-07-30T14:57:41.342Z,46.56
2022-07-30T15:00:34.758Z,45.67
2022-07-30T15:03:37.271Z,46.14
2022-07-30T15:06:26.633Z,45.63
2022-07-30T15:09:14.679Z,45.48
2022-07-30T15:12:09.013Z,45.90
2022-07-30T15:14:58.066Z,46.08
2022-07-30T15:17:46.402Z,46.27
2022-07-30T15:20:34.749Z,45.46
2022-07-30T15:23:23.168Z,46.13
2022-07-30T15:26:11.593Z,45.27
2022-07-30T15:28:59.794Z,44.38
2022-07-30T15:31:47.928Z,44.97
2022-07-30T15:34:36.213Z,45.72
2022-07-30T15:37:24.798Z,45.09
2022-07-30T15:40:14.328Z,45.82
2022-07-30T15:43:02.601Z,45.65
2022-07-30T15:45:58.365Z,45.78
2022-07-30T15:48:46.349Z,44.76
2022-07-30T15:51:35.448Z,44.35
2022-07-30T15:54:24.076Z,44.02
2022-07-30T15:57:13.762Z,45.55
2022-07-30T16:00:02.421Z,45.21
2022-07-30T16:03:00.313Z,45.37
2022-07-30T16:05:51.790Z,44.53
2022-07-30T16:08:40.721Z,46.43
2022-07-30T16:11:28.959Z,45.89
2022-07-30T16:14:20.710Z,44.51
2022-07-30T16:17:13.661Z,43.32
2022-07-30T16:20:03.766Z,44.03
2022-07-30T16:22:53.077Z,44.10
2022-07-30T16:25:41.059Z,44.40
2022-07-30T16:28:29.133Z,45.03
2022-07-30T16:31:17.710Z,44.42
2022-07-30T16:34:07.076Z,44.30
2022-07-30T16:36:55.590Z,44.91
2022-07-30T16:39:43.949Z,45.22
2022-07-30T16:42:32.924Z,44.89
2022-07-30T16:45:21.365Z,43.54
2022-07-30T16:48:11.168Z,43.10
2022-07-30T16:51:00.173Z,44.60
2022-07-30T16:53:48.764Z,45.10
2022-07-30T16:56:37.257Z,44.70
2022-07-30T16:59:25.707Z,44.87
2022-07-30T17:02:14.180Z,45.43
2022-07-30T17:05:02.294Z,46.01
2022-07-30T17:07:50.361Z,45.33
2022-07-30T17:10:38.485Z,44.93
2022-07-30T17:13:29.093Z,45.38
2022-07-30T17:16:17.680Z,46.07
2022-07-30T17:19:08.538Z,45.29
2022-07-30T17:21:58.255Z,46.04
2022-07-30T17:24:46.606Z,45.39
2022-07-30T17:27:35.086Z,46.15
2022-07-30T17:30:24.013Z,45.69
2022-07-30T17:33:12.026Z,46.38
2022-07-30T17:36:00.562Z,46.34
2022-07-30T17:38:48.934Z,47.61
2022-07-30T17:41:36.941Z,48.54
2022-07-30T17:44:45.376Z,48.56
2022-07-30T17:47:33.844Z,49.23
2022-07-30T17:50:22.842Z,47.58
2022-07-30T17:53:11.377Z,48.26
2022-07-30T17:55:59.743Z,49.19
2022-07-30T17:58:51.269Z,50.83
2022-07-30T18:01:39.914Z,50.33
2022-07-30T18:04:28.412Z,50.88
2022-07-30T18:07:16.414Z,50.74
2022-07-30T18:10:05.649Z,51.08
2022-07-30T18:12:54.124Z,51.35
2022-07-30T18:15:43.543Z,51.38
2022-07-30T18:18:32.125Z,52.04
2022-07-30T18:21:20.733Z,52.25
2022-07-30T18:24:08.949Z,52.21
2022-07-30T18:27:01.140Z,52.95
2022-07-30T18:29:49.244Z,53.30
2022-07-30T18:32:37.320Z,54.87
2022-07-30T18:35:25.479Z,54.52
2022-07-30T18:38:14.477Z,54.76
2022-07-30T18:41:03.578Z,55.79
2022-07-30T18:43:51.594Z,55.76
2022-07-30T18:46:39.807Z,55.98
2022-07-30T18:49:38.270Z,56.23
2022-07-30T18:52:27.000Z,55.70
2022-07-30T18:55:17.365Z,56.38
2022-07-30T18:58:05.715Z,56.92
2022-07-30T19:00:54.212Z,56.74
2022-07-30T19:03:42.235Z,56.81
2022-07-30T19:06:31.437Z,57.52
2022-07-30T19:09:19.997Z,56.88
2022-07-30T19:12:08.551Z,57.58
2022-07-30T19:14:56.890Z,57.68
2022-07-30T19:17:46.094Z,58.45
2022-07-30T19:20:35.253Z,56.58
2022-07-30T19:23:23.713Z,57.25
2022-07-30T19:26:13.807Z,57.26
2022-07-30T19:29:02.267Z,59.08
2022-07-30T19:31:50.746Z,58.82
2022-07-30T19:34:42.695Z,58.38
2022-07-30T19:37:30.738Z,59.89
2022-07-30T19:40:19.298Z,58.98
2022-07-30T19:43:09.467Z,58.72
2022-07-30T19:45:59.469Z,59.55
2022-07-30T19:48:48.394Z,58.82
2022-07-30T19:52:22.278Z,58.67
2022-07-30T19:54:48.113Z,58.39
2022-07-30T19:57:52.882Z,59.07
2022-07-30T20:00:42.705Z,59.36
2022-07-30T20:03:38.831Z,59.85
2022-07-30T20:06:27.462Z,60.21
2022-07-30T20:09:16.972Z,60.47
2022-07-30T20:12:05.847Z,60.94
2022-07-30T20:14:56.125Z,60.44
2022-07-30T20:17:46.436Z,60.59
2022-07-30T20:20:34.738Z,60.55
2022-07-30T20:23:22.995Z,60.33
2022-07-30T20:26:14.219Z,60.09
2022-07-30T20:29:03.744Z,60.24
2022-07-30T20:31:59.092Z,60.25
2022-07-30T20:34:47.257Z,59.54
2022-07-30T20:37:54.439Z,59.74
2022-07-30T20:40:46.709Z,58.97
2022-07-30T20:43:35.140Z,60.55
2022-07-30T20:46:39.705Z,60.45
2022-07-30T20:49:28.952Z,60.00
2022-07-30T20:52:23.358Z,60.69
2022-07-30T20:55:14.343Z,60.61
2022-07-30T20:58:07.958Z,60.49
2022-07-30T21:01:01.490Z,60.98
2022-07-30T21:03:53.331Z,60.52
2022-07-30T21:06:45.928Z,60.09
2022-07-30T21:09:52.215Z,60.63
2022-07-30T21:12:41.268Z,61.27
2022-07-30T21:15:33.427Z,61.67
2022-07-30T21:18:23.217Z,61.60
2022-07-30T21:21:11.572Z,61.70
2022-07-30T21:24:00.962Z,62.03
2022-07-30T21:26:50.870Z,61.24
2022-07-30T21:29:39.027Z,62.14
2022-07-30T21:32:27.167Z,61.66
2022-07-30T21:35:15.270Z,61.85
2022-07-30T21:38:03.774Z,62.18
2022-07-30T21:40:52.263Z,62.08
2022-07-30T21:43:40.584Z,62.34
2022-07-30T21:46:30.007Z,62.61
2022-07-30T21:49:19.967Z,62.08
2022-07-30T21:52:08.919Z,62.44
2022-07-30T21:54:57.141Z,62.06
2022-07-30T21:57:52.875Z,62.44
2022-07-30T22:00:50.418Z,62.62
2022-07-30T22:04:04.805Z,62.56
2022-07-30T22:06:47.255Z,62.39
2022-07-30T22:09:35.649Z,63.09
2022-07-30T22:12:28.852Z,63.46
2022-07-30T22:15:17.605Z,63.64
2022-07-30T22:18:06.438Z,64.06
2022-07-30T22:20:54.790Z,64.25
2022-07-30T22:23:54.958Z,63.93
2022-07-30T22:26:47.096Z,63.90
2022-07-30T22:29:42.658Z,64.25
2022-07-30T22:32:31.330Z,64.64
2022-07-30T22:35:20.623Z,64.45
2022-07-30T22:38:08.930Z,64.58
2022-07-30T22:40:57.461Z,64.65
2022-07-30T22:43:45.966Z,65.18
2022-07-30T22:46:34.332Z,65.18
2022-07-30T22:49:26.557Z,66.15
2022-07-30T22:52:50.275Z,64.88
2022-07-30T22:55:45.887Z,65.44
2022-07-30T22:58:34.449Z,65.91
2022-07-30T23:01:22.914Z,65.86
2022-07-30T23:04:11.438Z,66.08
2022-07-30T23:06:59.827Z,65.81
2022-07-30T23:12:31.000Z,65.84
2022-07-30T23:12:56.633Z,66.42
2022-07-30T23:15:45.064Z,66.02
2022-07-30T23:18:35.190Z,66.34
2022-07-30T23:21:23.302Z,66.38
2022-07-30T23:24:11.414Z,66.82
2022-07-30T23:26:59.912Z,66.66
2022-07-30T23:29:48.121Z,66.95
2022-07-30T23:32:36.797Z,67.50
2022-07-30T23:35:24.907Z,67.31
2022-07-30T23:38:13.302Z,67.59
2022-07-30T23:41:04.024Z,67.39
2022-07-30T23:43:52.552Z,67.41
2022-07-30T23:46:40.912Z,67.29
2022-07-30T23:49:28.925Z,68.24
2022-07-30T23:52:17.381Z,67.67
2022-07-30T23:55:05.895Z,68.38
2022-07-30T23:57:54.421Z,67.78
